createdAt,value
2017-05-07T00:00:44.099Z,64.28
2017-05-07T00:01:54.363Z,63.89
2017-05-07T00:03:04.631Z,64.56
2017-05-07T00:04:14.593Z,64.47
2017-05-07T00:05:24.863Z,64.56
2017-05-07T00:06:34.826Z,64.84
2017-05-07T00:07:45.097Z,64.56
2017-05-07T00:08:55.369Z,65.03
2017-05-07T00:10:05.326Z,65.03
2017-05-07T00:11:15.282Z,65.51
2017-05-07T00:12:25.554Z,67.03
2017-05-07T00:13:35.824Z,67.03
2017-05-07T00:14:46.144Z,67.32
2017-05-07T00:15:56.102Z,67.13
2017-05-07T00:17:06.370Z,66.66
2017-05-07T00:18:16.638Z,67.38
2017-05-07T00:19:26.903Z,67.1
2017-05-07T00:20:37.166Z,67.38
2017-05-07T00:21:47.427Z,66.72
2017-05-07T00:22:57.378Z,67.29
2017-05-07T00:24:07.646Z,67.29
2017-05-07T00:25:17.599Z,67.86
2017-05-07T00:26:27.865Z,68.27
2017-05-07T00:27:38.134Z,68.62
2017-05-07T00:28:48.404Z,68.05
2017-05-07T00:29:58.671Z,67.57
2017-05-07T00:31:08.619Z,68.43
2017-05-07T00:32:18.570Z,68.43
2017-05-07T00:33:28.843Z,68.24
2017-05-07T00:34:39.119Z,69
2017-05-07T00:35:49.387Z,68.71
2017-05-07T00:36:59.653Z,70.14
2017-05-07T00:38:09.605Z,69.29
2017-05-07T00:39:19.558Z,69.57
2017-05-07T00:40:29.831Z,69.67
2017-05-07T00:41:40.135Z,69.67
2017-05-07T00:42:50.405Z,70.43
2017-05-07T00:44:00.366Z,69.95
2017-05-07T00:45:10.040Z,70.14
2017-05-07T00:46:20.307Z,70.62
2017-05-07T00:47:30.583Z,71.09
2017-05-07T00:48:40.861Z,70.81
2017-05-07T00:49:50.813Z,70.52
2017-05-07T00:51:01.086Z,70.62
2017-05-07T00:52:11.355Z,70.62
2017-05-07T00:53:21.623Z,71.57
2017-05-07T00:54:31.580Z,71.95
2017-05-07T00:55:41.849Z,71.09
2017-05-07T00:56:52.155Z,71.67
2017-05-07T00:58:02.426Z,72.52
2017-05-07T00:59:12.381Z,72.52
2017-05-07T01:00:22.334Z,72.24
2017-05-07T01:01:32.608Z,72.33
2017-05-07T01:02:42.879Z,72.24
2017-05-07T01:03:53.147Z,72.81
2017-05-07T01:05:03.410Z,73.47
2017-05-07T01:06:13.046Z,73.76
2017-05-07T01:07:23.002Z,73.66
2017-05-07T01:08:32.635Z,74.48
2017-05-07T01:09:42.585Z,74.48
2017-05-07T01:10:52.535Z,74.1
2017-05-07T01:12:02.805Z,75.43
2017-05-07T01:13:13.074Z,75.24
2017-05-07T01:14:23.019Z,75.15
2017-05-07T01:15:32.965Z,76.76
2017-05-07T01:16:42.921Z,76.76
2017-05-07T01:17:53.190Z,76.86
2017-05-07T01:19:03.146Z,76.57
2017-05-07T01:20:13.409Z,76.67
2017-05-07T01:21:23.050Z,77.05
2017-05-07T01:22:32.377Z,77.81
2017-05-07T01:23:42.640Z,77.62
2017-05-07T01:24:52.904Z,77.72
2017-05-07T01:26:03.169Z,78.1
2017-05-07T01:27:13.433Z,79.33
2017-05-07T01:28:23.397Z,79.77
2017-05-07T01:29:33.668Z,79.24
2017-05-07T01:30:43.936Z,80.53
2017-05-07T01:31:54.204Z,79.68
2017-05-07T01:33:04.187Z,79.68
2017-05-07T01:34:14.147Z,79.68
2017-05-07T01:35:24.096Z,79.77
2017-05-07T01:36:33.745Z,80.34
2017-05-07T01:37:44.005Z,81.38
2017-05-07T01:38:54.272Z,80.63
2017-05-07T01:40:04.538Z,80.44
2017-05-07T01:41:14.806Z,80.34
2017-05-07T01:42:25.075Z,80.53
2017-05-07T01:43:35.024Z,79.77
2017-05-07T01:44:45.295Z,80.24
2017-05-07T01:45:55.244Z,80.72
2017-05-07T01:47:05.508Z,81.73
2017-05-07T01:48:15.781Z,81.44
2017-05-07T01:49:25.735Z,80.68
2017-05-07T01:50:35.687Z,80.58
2017-05-07T01:51:45.955Z,80.58
2017-05-07T01:52:55.915Z,80.58
2017-05-07T01:54:06.179Z,80.58
2017-05-07T01:55:15.507Z,81.25
2017-05-07T01:56:25.777Z,80.3
2017-05-07T01:57:36.038Z,81.63
2017-05-07T01:58:46.305Z,80.77
2017-05-07T01:59:56.602Z,80.58
2017-05-07T02:01:06.873Z,80.58
2017-05-07T02:02:16.828Z,81.82
2017-05-07T02:03:27.140Z,81.82
2017-05-07T02:04:37.409Z,82.01
2017-05-07T02:05:47.671Z,81.82
2017-05-07T02:06:57.932Z,82.49
2017-05-07T02:08:08.205Z,82.39
2017-05-07T02:09:18.728Z,81.54
2017-05-07T02:10:28.996Z,81.44
2017-05-07T02:11:38.942Z,81.35
2017-05-07T02:12:49.212Z,81.73
2017-05-07T02:13:59.484Z,83.53
2017-05-07T02:15:11.442Z,82.2
2017-05-07T02:16:21.708Z,82.68
2017-05-07T02:17:31.971Z,83.25
2017-05-07T02:18:42.238Z,82.77
2017-05-07T02:19:52.536Z,82.68
2017-05-07T02:21:03.004Z,83.25
2017-05-07T02:22:12.962Z,83.53
2017-05-07T02:23:23.226Z,83.44
2017-05-07T02:24:33.490Z,83.34
2017-05-07T02:25:43.749Z,82.96
2017-05-07T02:26:56.336Z,83.53
2017-05-07T02:28:06.284Z,83.44
2017-05-07T02:29:15.607Z,83.53
2017-05-07T02:30:25.874Z,84.29
2017-05-07T02:31:35.519Z,84.01
2017-05-07T02:32:45.779Z,84.1
2017-05-07T02:33:55.738Z,84.29
2017-05-07T02:35:06.000Z,84.1
2017-05-07T02:36:16.266Z,84.29
2017-05-07T02:37:26.220Z,84.58
2017-05-07T02:38:36.487Z,84.58
2017-05-07T02:39:46.756Z,84.39
2017-05-07T02:40:57.038Z,84.67
2017-05-07T02:42:06.988Z,85.43
2017-05-07T02:43:16.939Z,85.72
2017-05-07T02:44:27.204Z,85.39
2017-05-07T02:45:37.465Z,85.24
2017-05-07T02:46:47.730Z,84.72
2017-05-07T02:47:57.997Z,85.11
2017-05-07T02:49:07.951Z,85.11
2017-05-07T02:50:17.587Z,85.96
2017-05-07T02:51:27.540Z,85.62
2017-05-07T02:52:37.811Z,85.2
2017-05-07T02:53:48.078Z,85.24
2017-05-07T02:54:58.352Z,85.53
2017-05-07T02:56:08.614Z,85.81
2017-05-07T02:57:18.565Z,85.34
2017-05-07T02:58:28.521Z,85.15
2017-05-07T02:59:38.792Z,85.15
2017-05-07T03:00:49.057Z,85.24
2017-05-07T03:01:59.009Z,84.72
2017-05-07T03:03:09.272Z,84.44
2017-05-07T03:04:19.224Z,84.91
2017-05-07T03:05:29.488Z,85.11
2017-05-07T03:06:39.439Z,84.91
2017-05-07T03:07:49.747Z,85.3
2017-05-07T03:09:00.019Z,84.91
2017-05-07T03:10:10.287Z,84.63
2017-05-07T03:11:20.548Z,84.34
2017-05-07T03:12:30.809Z,85.58
2017-05-07T03:13:40.771Z,85.77
2017-05-07T03:14:51.037Z,86.05
2017-05-07T03:16:01.296Z,86.53
2017-05-07T03:17:11.243Z,86.63
2017-05-07T03:18:21.227Z,86.63
2017-05-07T03:19:31.186Z,86.63
2017-05-07T03:20:41.448Z,86.63
2017-05-07T03:21:51.717Z,86.72
2017-05-07T03:23:01.994Z,86.15
2017-05-07T03:24:12.258Z,86.72
2017-05-07T03:25:22.214Z,86.91
2017-05-07T03:26:32.166Z,86.63
2017-05-07T03:27:42.130Z,86.53
2017-05-07T03:28:52.458Z,86.43
2017-05-07T03:30:02.729Z,86.82
2017-05-07T03:31:12.683Z,86.63
2017-05-07T03:32:22.952Z,86.43
2017-05-07T03:33:33.241Z,86.63
2017-05-07T03:34:43.193Z,87.38
2017-05-07T03:35:53.452Z,86.91
2017-05-07T03:37:03.724Z,87.19
2017-05-07T03:38:13.990Z,87.01
2017-05-07T03:39:24.250Z,86.82
2017-05-07T03:40:34.197Z,86.34
2017-05-07T03:41:44.457Z,86.15
2017-05-07T03:42:54.719Z,85.96
2017-05-07T03:44:04.674Z,86.24
2017-05-07T03:45:14.623Z,86.53
2017-05-07T03:46:24.880Z,86.43
2017-05-07T03:47:35.147Z,87.01
2017-05-07T03:48:45.413Z,87.01
2017-05-07T03:49:55.678Z,87.19
2017-05-07T03:51:05.627Z,87.86
2017-05-07T03:52:15.892Z,87.86
2017-05-07T03:53:25.881Z,87.95
2017-05-07T03:54:36.144Z,88.05
2017-05-07T03:55:46.414Z,87.38
2017-05-07T03:56:56.682Z,87.38
2017-05-07T03:58:06.949Z,87.95
2017-05-07T03:59:16.895Z,87.95
2017-05-07T04:00:27.161Z,87.48
2017-05-07T04:01:37.424Z,87.95
2017-05-07T04:02:47.684Z,88.24
2017-05-07T04:03:57.985Z,88.24
2017-05-07T04:05:08.262Z,88.43
2017-05-07T04:06:17.891Z,88.15
2017-05-07T04:07:28.155Z,87.57
2017-05-07T04:08:38.419Z,87.95
2017-05-07T04:09:48.681Z,88.05
2017-05-07T04:10:58.943Z,87.95
2017-05-07T04:12:09.201Z,87.48
2017-05-07T04:13:19.456Z,87.19
2017-05-07T04:14:29.722Z,87.57
2017-05-07T04:15:39.990Z,87.76
2017-05-07T04:16:50.296Z,87.86
2017-05-07T04:18:00.556Z,87.48
2017-05-07T04:19:10.513Z,87.76
2017-05-07T04:20:20.455Z,87.67
2017-05-07T04:21:30.719Z,87.76
2017-05-07T04:22:40.979Z,87.67
2017-05-07T04:23:51.241Z,87.29
2017-05-07T04:25:01.506Z,87.48
2017-05-07T04:26:11.767Z,86.72
2017-05-07T04:27:21.717Z,85.01
2017-05-07T04:28:31.670Z,85.11
2017-05-07T04:29:41.934Z,85.11
2017-05-07T04:30:52.195Z,83.59
2017-05-07T04:32:02.463Z,83.59
2017-05-07T04:33:12.414Z,82.78
2017-05-07T04:34:22.675Z,83.26
2017-05-07T04:35:32.939Z,82.78
2017-05-07T04:36:43.204Z,82.4
2017-05-07T04:37:53.477Z,82.03
2017-05-07T04:39:03.741Z,82.4
2017-05-07T04:40:14.006Z,82.03
2017-05-07T04:41:24.260Z,82.31
2017-05-07T04:42:34.521Z,83.45
2017-05-07T04:43:44.479Z,83.26
2017-05-07T04:44:54.750Z,83.54
2017-05-07T04:46:05.018Z,83.36
2017-05-07T04:47:14.652Z,82.31
2017-05-07T04:48:24.919Z,82.97
2017-05-07T04:49:35.184Z,83.54
2017-05-07T04:50:45.445Z,84.11
2017-05-07T04:51:55.416Z,83.26
2017-05-07T04:53:05.683Z,83.45
2017-05-07T04:54:15.951Z,83.36
2017-05-07T04:55:26.219Z,83.16
2017-05-07T04:56:35.856Z,83.26
2017-05-07T04:57:46.125Z,83.45
2017-05-07T04:58:56.394Z,82.59
2017-05-07T05:00:06.658Z,82.74
2017-05-07T05:01:16.921Z,83.54
2017-05-07T05:02:27.177Z,83.64
2017-05-07T05:03:37.442Z,83.54
2017-05-07T05:04:47.699Z,83.36
2017-05-07T05:05:57.960Z,83.45
2017-05-07T05:07:08.226Z,83.36
2017-05-07T05:08:18.174Z,83.36
2017-05-07T05:09:28.435Z,83.54
2017-05-07T05:10:38.698Z,83.16
2017-05-07T05:11:48.957Z,83.36
2017-05-07T05:12:59.221Z,83.26
2017-05-07T05:14:09.486Z,82.97
2017-05-07T05:15:19.742Z,83.26
2017-05-07T05:16:30.009Z,83.54
2017-05-07T05:17:39.962Z,82.69
2017-05-07T05:18:50.221Z,83.16
2017-05-07T05:20:00.479Z,83.45
2017-05-07T05:21:10.745Z,83.16
2017-05-07T05:22:21.009Z,83.36
2017-05-07T05:23:31.270Z,83.54
2017-05-07T05:24:41.526Z,83.45
2017-05-07T05:25:51.799Z,83.16
2017-05-07T05:27:01.747Z,82.03
2017-05-07T05:28:12.009Z,82.21
2017-05-07T05:29:21.968Z,82.21
2017-05-07T05:30:32.232Z,82.97
2017-05-07T05:31:41.873Z,82.12
2017-05-07T05:32:52.137Z,80.32
2017-05-07T05:34:02.397Z,81.26
2017-05-07T05:35:12.663Z,81.65
2017-05-07T05:36:22.924Z,82.21
2017-05-07T05:37:33.186Z,82.69
2017-05-07T05:38:43.457Z,82.12
2017-05-07T05:39:53.717Z,81.07
2017-05-07T05:41:03.984Z,79.65
2017-05-07T05:42:13.930Z,79.27
2017-05-07T05:43:24.182Z,80.22
2017-05-07T05:44:34.130Z,79.65
2017-05-07T05:45:44.076Z,80.41
2017-05-07T05:46:54.337Z,79.97
2017-05-07T05:48:04.594Z,79.69
2017-05-07T05:49:14.872Z,79.88
2017-05-07T05:50:25.138Z,80.16
2017-05-07T05:51:35.404Z,78.99
2017-05-07T05:52:45.669Z,78.93
2017-05-07T05:53:55.936Z,79.97
2017-05-07T05:55:06.217Z,78.74
2017-05-07T05:56:16.476Z,77.7
2017-05-07T05:57:26.736Z,76.75
2017-05-07T05:58:36.998Z,76.75
2017-05-07T05:59:46.947Z,75.51
2017-05-07T06:00:57.214Z,75.79
2017-05-07T06:02:07.162Z,74.05
2017-05-07T06:03:17.430Z,74.08
2017-05-07T06:04:27.703Z,74.05
2017-05-07T06:05:37.965Z,73.23
2017-05-07T06:06:48.224Z,73.23
2017-05-07T06:07:58.487Z,73.61
2017-05-07T06:09:08.447Z,73.57
2017-05-07T06:10:18.713Z,72.28
2017-05-07T06:11:28.973Z,72.38
2017-05-07T06:12:39.267Z,72.66
2017-05-07T06:13:49.527Z,73.99
2017-05-07T06:14:59.792Z,73.67
2017-05-07T06:16:09.740Z,73.61
2017-05-07T06:17:19.693Z,73.71
2017-05-07T06:18:29.953Z,73.42
2017-05-07T06:19:39.932Z,72.38
2017-05-07T06:20:50.193Z,71.52
2017-05-07T06:22:00.140Z,71.23
2017-05-07T06:23:09.772Z,70.86
2017-05-07T06:24:19.724Z,71.14
2017-05-07T06:25:29.987Z,70.86
2017-05-07T06:26:40.246Z,70.67
2017-05-07T06:27:50.508Z,70.95
2017-05-07T06:29:00.765Z,70.76
2017-05-07T06:30:10.705Z,72.19
2017-05-07T06:31:20.655Z,72.09
2017-05-07T06:32:30.917Z,71.52
2017-05-07T06:33:41.176Z,70.95
2017-05-07T06:34:51.436Z,71.04
2017-05-07T06:36:01.715Z,71.14
2017-05-07T06:37:11.665Z,70.95
2017-05-07T06:38:21.621Z,71.23
2017-05-07T06:39:31.569Z,71.75
2017-05-07T06:40:41.832Z,71.84
2017-05-07T06:41:52.093Z,71.37
2017-05-07T06:43:02.060Z,70.89
2017-05-07T06:44:12.011Z,70.23
2017-05-07T06:45:22.270Z,71.41
2017-05-07T06:46:32.528Z,69.6
2017-05-07T06:47:42.482Z,68.55
2017-05-07T06:48:52.745Z,68.84
2017-05-07T06:50:03.020Z,69.88
2017-05-07T06:51:13.286Z,70.07
2017-05-07T06:52:23.234Z,69.25
2017-05-07T06:53:33.184Z,67.16
2017-05-07T06:54:43.451Z,66.11
2017-05-07T06:55:53.715Z,66.87
2017-05-07T06:57:03.668Z,66.02
2017-05-07T06:58:13.614Z,66.11
2017-05-07T06:59:23.569Z,66.78
2017-05-07T07:00:33.840Z,66.02
2017-05-07T07:01:43.472Z,64.5
2017-05-07T07:02:53.741Z,63.64
2017-05-07T07:04:04.028Z,64.02
2017-05-07T07:05:13.662Z,64.78
2017-05-07T07:06:23.919Z,64.75
2017-05-07T07:07:34.185Z,64.84
2017-05-07T07:08:44.452Z,65.25
2017-05-07T07:09:54.713Z,64.84
2017-05-07T07:11:04.981Z,63.92
2017-05-07T07:12:14.617Z,64.08
2017-05-07T07:13:24.881Z,64.08
2017-05-07T07:14:35.148Z,65.03
2017-05-07T07:15:45.408Z,64.84
2017-05-07T07:16:55.666Z,64.21
2017-05-07T07:18:05.617Z,64.84
2017-05-07T07:19:15.565Z,64.94
2017-05-07T07:20:25.828Z,65.03
2017-05-07T07:21:36.097Z,65.6
2017-05-07T07:22:46.052Z,65.41
2017-05-07T07:23:56.316Z,65.32
2017-05-07T07:25:06.587Z,65.45
2017-05-07T07:26:16.856Z,65.35
2017-05-07T07:27:26.812Z,65.06
2017-05-07T07:28:37.072Z,64.31
2017-05-07T07:29:47.336Z,64.21
2017-05-07T07:30:57.592Z,62.78
2017-05-07T07:32:07.855Z,61.83
2017-05-07T07:33:17.494Z,62.3
2017-05-07T07:34:27.441Z,62.88
2017-05-07T07:35:37.715Z,61.61
2017-05-07T07:36:47.969Z,61.83
2017-05-07T07:37:58.228Z,61.93
2017-05-07T07:39:08.500Z,62.78
2017-05-07T07:40:18.773Z,62.49
2017-05-07T07:41:29.040Z,62.69
2017-05-07T07:42:39.304Z,63.99
2017-05-07T07:43:49.570Z,64.11
2017-05-07T07:44:59.834Z,63.92
2017-05-07T07:46:10.101Z,63.26
2017-05-07T07:47:20.051Z,62.3
2017-05-07T07:48:30.312Z,62.78
2017-05-07T07:49:40.571Z,62.78
2017-05-07T07:50:50.835Z,62.3
2017-05-07T07:52:01.097Z,60.5
2017-05-07T07:53:10.736Z,61.9
2017-05-07T07:54:21.004Z,61.99
2017-05-07T07:55:30.954Z,61.52
2017-05-07T07:56:41.209Z,61.71
2017-05-07T07:57:51.154Z,60.38
2017-05-07T07:59:01.420Z,61.52
2017-05-07T08:00:11.695Z,62.46
2017-05-07T08:01:21.329Z,61.61
2017-05-07T08:02:31.590Z,60.18
2017-05-07T08:03:41.854Z,60.85
2017-05-07T08:04:52.125Z,61.13
2017-05-07T08:06:02.395Z,59.05
2017-05-07T08:07:12.661Z,59.8
2017-05-07T08:08:22.618Z,61.61
2017-05-07T08:09:32.883Z,62.46
2017-05-07T08:10:43.146Z,61.42
2017-05-07T08:11:53.414Z,60.57
2017-05-07T08:13:03.680Z,59.9
2017-05-07T08:14:13.943Z,58.18
2017-05-07T08:15:23.891Z,58.18
2017-05-07T08:16:34.148Z,57.71
2017-05-07T08:17:44.408Z,58.28
2017-05-07T08:18:54.353Z,59.14
2017-05-07T08:20:04.624Z,59.23
2017-05-07T08:21:14.888Z,59.61
2017-05-07T08:22:25.157Z,59.71
2017-05-07T08:23:35.424Z,58.95
2017-05-07T08:24:45.684Z,59.99
2017-05-07T08:25:55.946Z,59.42
2017-05-07T08:27:06.211Z,58.95
2017-05-07T08:28:16.473Z,60.38
2017-05-07T08:29:26.733Z,58.28
2017-05-07T08:30:36.679Z,58.47
2017-05-07T08:31:46.628Z,58.09
2017-05-07T08:32:56.891Z,57.81
2017-05-07T08:34:07.159Z,58.47
2017-05-07T08:35:16.484Z,58
2017-05-07T08:36:26.747Z,56.88
2017-05-07T08:37:37.014Z,56.1
2017-05-07T08:38:46.967Z,56.41
2017-05-07T08:39:57.226Z,57.45
2017-05-07T08:41:07.486Z,58.03
2017-05-07T08:42:17.435Z,54.03
2017-05-07T08:43:27.387Z,55.05
2017-05-07T08:44:37.652Z,54.6
2017-05-07T08:45:47.917Z,53.43
2017-05-07T08:46:58.181Z,54.1
2017-05-07T08:48:08.441Z,54.38
2017-05-07T08:49:18.397Z,56
2017-05-07T08:50:28.661Z,56.12
2017-05-07T08:51:38.932Z,54.6
2017-05-07T08:52:49.197Z,54.41
2017-05-07T08:53:59.467Z,54.03
2017-05-07T08:55:09.733Z,54.89
2017-05-07T08:56:20.002Z,56.03
2017-05-07T08:57:30.296Z,55.17
2017-05-07T08:58:40.592Z,54.13
2017-05-07T08:59:50.868Z,54.13
2017-05-07T09:01:01.133Z,55.08
2017-05-07T09:02:11.403Z,54.89
2017-05-07T09:03:21.354Z,54.89
2017-05-07T09:04:31.302Z,52.44
2017-05-07T09:05:41.571Z,52.32
2017-05-07T09:06:51.843Z,53.08
2017-05-07T09:08:02.112Z,54.22
2017-05-07T09:09:12.381Z,52.25
2017-05-07T09:10:22.653Z,51.49
2017-05-07T09:11:32.917Z,52.22
2017-05-07T09:12:43.182Z,51.84
2017-05-07T09:13:53.456Z,52.53
2017-05-07T09:15:03.088Z,53.46
2017-05-07T09:16:13.347Z,53.3
2017-05-07T09:17:23.611Z,53.58
2017-05-07T09:18:33.880Z,53.87
2017-05-07T09:19:43.837Z,52.92
2017-05-07T09:20:53.779Z,51.1
2017-05-07T09:22:04.044Z,49.4
2017-05-07T09:23:14.312Z,48.92
2017-05-07T09:24:24.569Z,49.49
2017-05-07T09:25:34.516Z,49.87
2017-05-07T09:26:44.772Z,49.68
2017-05-07T09:27:55.038Z,49.77
2017-05-07T09:29:04.984Z,49.2
2017-05-07T09:30:15.247Z,49.49
2017-05-07T09:31:25.505Z,48.92
2017-05-07T09:32:35.767Z,50.44
2017-05-07T09:33:46.042Z,50.15
2017-05-07T09:34:56.311Z,50.25
2017-05-07T09:36:06.585Z,49.96
2017-05-07T09:37:16.849Z,48.82
2017-05-07T09:38:27.115Z,48.16
2017-05-07T09:39:37.065Z,46.83
2017-05-07T09:40:47.326Z,47.11
2017-05-07T09:41:57.591Z,48.16
2017-05-07T09:43:07.867Z,48.73
2017-05-07T09:44:18.128Z,46.54
2017-05-07T09:45:28.424Z,47.87
2017-05-07T09:46:38.698Z,48.16
2017-05-07T09:47:48.958Z,49.01
2017-05-07T09:48:59.226Z,47.78
2017-05-07T09:50:09.488Z,48.44
2017-05-07T09:51:19.753Z,48.16
2017-05-07T09:52:29.703Z,48.16
2017-05-07T09:53:39.970Z,49.11
2017-05-07T09:54:50.235Z,48.92
2017-05-07T09:56:00.492Z,48.37
2017-05-07T09:57:10.757Z,49.23
2017-05-07T09:58:20.709Z,47.71
2017-05-07T09:59:30.977Z,47.32
2017-05-07T10:00:40.926Z,47.13
2017-05-07T10:01:51.190Z,46.28
2017-05-07T10:03:01.141Z,46.18
2017-05-07T10:04:11.411Z,46.84
2017-05-07T10:05:21.359Z,48.75
2017-05-07T10:06:31.358Z,49.71
2017-05-07T10:07:41.616Z,50.18
2017-05-07T10:08:51.880Z,49.71
2017-05-07T10:10:02.135Z,49.9
2017-05-07T10:11:12.403Z,49.8
2017-05-07T10:12:22.668Z,49.61
2017-05-07T10:13:32.936Z,48.85
2017-05-07T10:14:43.205Z,47.89
2017-05-07T10:15:53.507Z,48.66
2017-05-07T10:17:03.771Z,49.71
2017-05-07T10:18:14.036Z,47.89
2017-05-07T10:19:24.301Z,49.61
2017-05-07T10:20:34.567Z,49.32
2017-05-07T10:21:44.829Z,48.66
2017-05-07T10:22:54.461Z,48.94
2017-05-07T10:24:04.724Z,48.08
2017-05-07T10:25:14.989Z,48.68
2017-05-07T10:26:25.262Z,48.68
2017-05-07T10:27:35.518Z,47.16
2017-05-07T10:28:45.477Z,47.54
2017-05-07T10:29:55.733Z,45.63
2017-05-07T10:31:05.366Z,46.2
2017-05-07T10:32:15.626Z,45.54
2017-05-07T10:33:25.575Z,46.58
2017-05-07T10:34:35.525Z,46.78
2017-05-07T10:35:45.788Z,46.49
2017-05-07T10:36:56.048Z,49.61
2017-05-07T10:38:06.321Z,47.52
2017-05-07T10:39:16.580Z,45.23
2017-05-07T10:40:26.839Z,47.89
2017-05-07T10:41:37.119Z,48.47
2017-05-07T10:42:47.389Z,47.42
2017-05-07T10:43:57.653Z,47.71
2017-05-07T10:45:07.606Z,47.52
2017-05-07T10:46:17.901Z,47.8
2017-05-07T10:47:28.166Z,46.49
2017-05-07T10:48:38.113Z,46.87
2017-05-07T10:49:48.372Z,48.39
2017-05-07T10:50:58.323Z,50.01
2017-05-07T10:52:08.586Z,47.44
2017-05-07T10:53:18.879Z,47.92
2017-05-07T10:54:28.835Z,49.35
2017-05-07T10:55:39.098Z,48.52
2017-05-07T10:56:49.363Z,45.56
2017-05-07T10:57:59.631Z,46.61
2017-05-07T10:59:09.902Z,47.75
2017-05-07T11:00:20.177Z,47.85
2017-05-07T11:01:30.438Z,46.32
2017-05-07T11:02:40.391Z,46.13
2017-05-07T11:03:50.654Z,44.8
2017-05-07T11:05:00.916Z,43.18
2017-05-07T11:06:11.195Z,45.28
2017-05-07T11:07:21.144Z,46.15
2017-05-07T11:08:30.783Z,45.39
2017-05-07T11:09:40.737Z,45.01
2017-05-07T11:10:51.002Z,44.15
2017-05-07T11:12:00.955Z,43.1
2017-05-07T11:13:10.590Z,42.24
2017-05-07T11:14:20.850Z,41.96
2017-05-07T11:15:31.111Z,41.27
2017-05-07T11:16:41.375Z,42.41
2017-05-07T11:17:51.644Z,43.27
2017-05-07T11:19:01.282Z,42.51
2017-05-07T11:20:11.548Z,41.46
2017-05-07T11:21:21.814Z,40.7
2017-05-07T11:22:32.083Z,42.89
2017-05-07T11:23:42.356Z,42.15
2017-05-07T11:24:52.621Z,41.98
2017-05-07T11:26:02.882Z,39.23
2017-05-07T11:27:12.521Z,38.01
2017-05-07T11:28:22.788Z,37.36
2017-05-07T11:29:33.054Z,36.71
2017-05-07T11:30:43.005Z,37.02
2017-05-07T11:31:53.272Z,33.78
2017-05-07T11:33:03.548Z,32.36
2017-05-07T11:34:13.186Z,33.7
2017-05-07T11:35:23.459Z,34.39
2017-05-07T11:36:33.730Z,33.54
2017-05-07T11:37:44.004Z,29.93
2017-05-07T11:38:54.285Z,31.74
2017-05-07T11:40:04.566Z,31.37
2017-05-07T11:41:14.216Z,29.75
2017-05-07T11:42:24.491Z,28.41
2017-05-07T11:43:34.762Z,29.83
2017-05-07T11:44:45.039Z,29.35
2017-05-07T11:45:55.320Z,29.28
2017-05-07T11:47:05.282Z,29.02
2017-05-07T11:48:14.926Z,29.1
2017-05-07T11:49:25.200Z,26.71
2017-05-07T11:50:35.490Z,27.58
2017-05-07T11:51:45.449Z,27.97
2017-05-07T11:52:55.725Z,26.62
2017-05-07T11:54:06.012Z,26.43
2017-05-07T11:55:16.295Z,26.83
2017-05-07T11:56:26.255Z,26.32
2017-05-07T11:57:36.540Z,27.27
2017-05-07T11:58:46.823Z,27.75
2017-05-07T11:59:56.800Z,27.94
2017-05-07T12:01:07.079Z,26.71
2017-05-07T12:02:17.352Z,25.85
2017-05-07T12:03:27.651Z,26.43
2017-05-07T12:04:37.929Z,25.2
2017-05-07T12:05:47.891Z,26.35
2017-05-07T12:06:57.548Z,25.11
2017-05-07T12:08:07.831Z,25.31
2017-05-07T12:09:18.112Z,24.26
2017-05-07T12:10:28.388Z,25.02
2017-05-07T12:11:38.356Z,25.31
2017-05-07T12:12:48.639Z,23.19
2017-05-07T12:13:58.601Z,24.15
2017-05-07T12:15:08.884Z,23.38
2017-05-07T12:16:18.852Z,22.9
2017-05-07T12:17:29.127Z,22.31
2017-05-07T12:18:39.412Z,22.41
2017-05-07T12:19:49.687Z,22.31
2017-05-07T12:20:59.964Z,22.52
2017-05-07T12:22:09.935Z,22.5
2017-05-07T12:23:19.900Z,22.5
2017-05-07T12:24:30.176Z,21.92
2017-05-07T12:25:40.479Z,22.03
2017-05-07T12:26:50.442Z,22.71
2017-05-07T12:28:00.721Z,23.28
2017-05-07T12:29:10.061Z,22.9
2017-05-07T12:30:20.341Z,23.09
2017-05-07T12:31:30.615Z,22.24
2017-05-07T12:32:40.892Z,22.8
2017-05-07T12:33:50.853Z,22.71
2017-05-07T12:35:01.126Z,22.22
2017-05-07T12:36:10.771Z,21.27
2017-05-07T12:37:20.738Z,21.37
2017-05-07T12:38:31.019Z,21.95
2017-05-07T12:39:41.300Z,21.96
2017-05-07T12:40:51.882Z,22.24
2017-05-07T12:42:02.160Z,20.98
2017-05-07T12:43:12.432Z,21.95
2017-05-07T12:44:22.405Z,20.9
2017-05-07T12:45:32.680Z,20.61
2017-05-07T12:46:42.957Z,20.5
2017-05-07T12:47:53.245Z,21.27
2017-05-07T12:49:03.211Z,20.5
2017-05-07T12:50:13.499Z,20.7
2017-05-07T12:51:23.780Z,21.94
2017-05-07T12:52:33.745Z,22.24
2017-05-07T12:53:44.026Z,22.9
2017-05-07T12:54:54.306Z,22.8
2017-05-07T12:56:04.594Z,22.03
2017-05-07T12:57:14.557Z,21.95
2017-05-07T12:58:24.841Z,21.65
2017-05-07T12:59:35.118Z,21.55
2017-05-07T13:00:45.404Z,21.26
2017-05-07T13:01:55.678Z,21.47
2017-05-07T13:03:05.972Z,22.69
2017-05-07T13:04:15.933Z,22.39
2017-05-07T13:05:25.900Z,21.92
2017-05-07T13:06:36.177Z,22.11
2017-05-07T13:07:46.454Z,21.54
2017-05-07T13:08:56.736Z,22.31
2017-05-07T13:10:07.016Z,22.22
2017-05-07T13:11:17.308Z,22.52
2017-05-07T13:12:27.601Z,21.84
2017-05-07T13:13:37.874Z,21.65
2017-05-07T13:14:47.834Z,21.08
2017-05-07T13:15:57.487Z,20.12
2017-05-07T13:17:07.773Z,20.23
2017-05-07T13:18:17.740Z,20.02
2017-05-07T13:19:27.393Z,21.75
2017-05-07T13:20:37.683Z,21.95
2017-05-07T13:21:47.964Z,20.61
2017-05-07T13:22:57.928Z,21.38
2017-05-07T13:24:08.211Z,20.89
2017-05-07T13:25:18.493Z,21.66
2017-05-07T13:26:28.779Z,21.08
2017-05-07T13:27:39.357Z,21.94
2017-05-07T13:28:49.631Z,20.78
2017-05-07T13:29:59.910Z,20.88
2017-05-07T13:31:10.194Z,21.07
2017-05-07T13:32:20.494Z,22.02
2017-05-07T13:33:30.770Z,21.44
2017-05-07T13:34:41.056Z,21.25
2017-05-07T13:35:51.340Z,21.24
2017-05-07T13:37:01.623Z,21.82
2017-05-07T13:38:11.586Z,21.44
2017-05-07T13:39:21.872Z,20.57
2017-05-07T13:40:32.150Z,20.76
2017-05-07T13:41:42.423Z,21.53
2017-05-07T13:42:52.703Z,20.67
2017-05-07T13:44:02.984Z,21.25
2017-05-07T13:45:12.948Z,20.58
2017-05-07T13:46:23.229Z,20.59
2017-05-07T13:47:33.505Z,19.82
2017-05-07T13:48:43.784Z,20
2017-05-07T13:49:54.067Z,19.92
2017-05-07T13:51:04.025Z,20.01
2017-05-07T13:52:13.990Z,20.3
2017-05-07T13:53:24.266Z,19.43
2017-05-07T13:54:34.546Z,19.83
2017-05-07T13:55:44.827Z,19.64
2017-05-07T13:56:55.098Z,18.87
2017-05-07T13:58:05.376Z,18.3
2017-05-07T13:59:15.662Z,18.49
2017-05-07T14:00:25.932Z,17.91
2017-05-07T14:01:35.892Z,18.3
2017-05-07T14:02:46.178Z,18.4
2017-05-07T14:03:56.458Z,18.21
2017-05-07T14:05:06.436Z,18.9
2017-05-07T14:06:16.720Z,18.88
2017-05-07T14:07:26.377Z,18.7
2017-05-07T14:08:36.656Z,17.82
2017-05-07T14:09:46.943Z,18.88
2017-05-07T14:10:57.227Z,18.5
2017-05-07T14:12:07.507Z,18.4
2017-05-07T14:13:17.481Z,17.73
2017-05-07T14:14:27.763Z,18.3
2017-05-07T14:15:38.044Z,17.44
2017-05-07T14:16:48.335Z,17.24
2017-05-07T14:17:58.615Z,17.14
2017-05-07T14:19:08.593Z,16.66
2017-05-07T14:20:18.876Z,16.47
2017-05-07T14:21:29.153Z,17.05
2017-05-07T14:22:39.430Z,16.86
2017-05-07T14:23:49.082Z,16.67
2017-05-07T14:24:59.360Z,16.77
2017-05-07T14:26:09.646Z,16.77
2017-05-07T14:27:19.923Z,17.74
2017-05-07T14:28:30.206Z,17.46
2017-05-07T14:29:40.487Z,17.55
2017-05-07T14:30:50.458Z,17.65
2017-05-07T14:32:00.733Z,16.89
2017-05-07T14:33:10.713Z,17.08
2017-05-07T14:34:20.996Z,16.5
2017-05-07T14:35:30.957Z,16.11
2017-05-07T14:36:41.241Z,16.79
2017-05-07T14:37:51.520Z,16.7
2017-05-07T14:39:01.482Z,16.52
2017-05-07T14:40:11.762Z,15.84
2017-05-07T14:41:21.740Z,15.64
2017-05-07T14:42:31.706Z,16.7
2017-05-07T14:43:41.996Z,16.5
2017-05-07T14:44:52.272Z,16.21
2017-05-07T14:46:02.243Z,17.35
2017-05-07T14:47:12.526Z,17.25
2017-05-07T14:48:22.837Z,16.59
2017-05-07T14:49:33.115Z,17.17
2017-05-07T14:50:43.089Z,16.5
2017-05-07T14:51:53.361Z,16.5
2017-05-07T14:53:03.632Z,15.73
2017-05-07T14:54:13.913Z,16.69
2017-05-07T14:55:24.191Z,15.73
2017-05-07T14:56:34.477Z,16.61
2017-05-07T14:57:44.448Z,16.31
2017-05-07T14:58:53.788Z,15.84
2017-05-07T15:00:04.072Z,16.42
2017-05-07T15:01:14.355Z,17.1
2017-05-07T15:02:24.631Z,16.31
2017-05-07T15:03:34.941Z,16.31
2017-05-07T15:04:45.216Z,16.59
2017-05-07T15:05:55.497Z,17.27
2017-05-07T15:07:05.461Z,17.82